Time;durP1;ratioP1;P1;durP2;ratioP2;P2;SDS_P1;SDS_P2;PMS_P1;PMS_P2;Temp;Humidity;BMP_temperature;BMP_pressure;BME280_temperature;BME280_humidity;BME280_pressure;Samples;Min_cycle;Max_cycle;Signal;HPM_P1;HPM_P2
2023/03/29 00:01:24;;;;;;;0.85;0.60;;;;;;;21.30;27.70;100811.69;4543492;28;20036;-57
2023/03/29 00:03:35;;;;;;;0.80;0.50;;;;;;;21.24;27.59;100801.69;4543537;28;20037;-58
2023/03/29 00:05:45;;;;;;;0.88;0.70;;;;;;;21.26;27.63;100802.16;4543455;28;20614;-57
2023/03/29 00:08:00;;;;;;;0.75;0.60;;;;;;;21.28;27.77;100791.13;4542376;28;20037;-57
2023/03/29 00:10:12;;;;;;;0.70;0.70;;;;;;;21.30;27.68;100788.72;4544372;28;20033;-58
2023/03/29 00:12:22;;;;;;;0.60;0.60;;;;;;;21.28;27.70;100790.31;4543565;28;20604;-58
2023/03/29 00:14:33;;;;;;;0.60;0.60;;;;;;;21.27;28.03;100788.63;4543251;28;20032;-57
2023/03/29 00:16:45;;;;;;;0.93;0.57;;;;;;;21.30;27.41;100794.47;4541266;28;20029;-57
2023/03/29 00:18:56;;;;;;;0.63;0.63;;;;;;;21.22;28.15;100775.38;4543533;28;20552;-57
2023/03/29 00:21:07;;;;;;;0.60;0.60;;;;;;;21.27;28.34;100782.88;4560561;28;20051;-57
2023/03/29 00:23:18;;;;;;;0.60;0.60;;;;;;;21.28;28.28;100778.81;4544900;28;20036;-57
2023/03/29 00:25:28;;;;;;;0.70;0.70;;;;;;;21.14;28.01;100753.41;4545747;28;20091;-58
2023/03/29 00:27:39;;;;;;;0.63;0.63;;;;;;;21.27;28.39;100763.63;4544476;28;20047;-57
2023/03/29 00:29:49;;;;;;;0.68;0.55;;;;;;;21.26;28.25;100767.72;4552005;28;20140;-58
2023/03/29 00:32:00;;;;;;;0.50;0.50;;;;;;;21.25;28.40;100763.16;4551148;28;20036;-58
2023/03/29 00:34:10;;;;;;;0.70;0.65;;;;;;;21.17;28.35;100746.94;4543843;28;20084;-57
2023/03/29 00:36:22;;;;;;;0.70;0.70;;;;;;;21.27;28.19;100754.16;4550438;28;20025;-58
2023/03/29 00:38:32;;;;;;;0.70;0.60;;;;;;;21.25;28.58;100750.84;4546065;28;20134;-58
2023/03/29 00:40:47;;;;;;;0.75;0.60;;;;;;;21.16;28.31;100735.81;4544283;28;20090;-58
2023/03/29 00:42:59;;;;;;;0.77;0.77;;;;;;;21.25;28.63;100751.66;4541628;28;20045;-58
2023/03/29 00:45:24;;;;;;;0.70;0.70;;;;;;;21.26;28.62;100746.78;4550217;28;20578;-58
2023/03/29 00:47:44;;;;;;;0.70;0.70;;;;;;;21.25;28.78;100745.94;4541988;28;20856;-57
2023/03/29 00:50:00;;;;;;;0.93;0.65;;;;;;;21.22;28.54;100734.34;4559178;28;20028;-58
2023/03/29 00:52:14;;;;;;;0.60;0.60;;;;;;;21.22;28.66;100732.31;4550735;27;20697;-58
2023/03/29 00:54:25;;;;;;;0.80;0.68;;;;;;;21.21;28.60;100721.19;4544487;28;20036;-58
2023/03/29 00:56:38;;;;;;;0.68;0.68;;;;;;;21.22;28.29;100726.56;4542468;28;20045;-58
2023/03/29 00:59:19;;;;;;;0.55;0.55;;;;;;;21.23;28.76;100722.47;4543218;28;21682;-58
2023/03/29 01:01:49;;;;;;;0.82;0.70;;;;;;;21.24;28.66;100715.56;4542217;28;20160;-57
2023/03/29 01:04:17;;;;;;;0.70;0.70;;;;;;;21.21;28.30;100701.09;4557613;27;20037;-58
2023/03/29 01:06:33;;;;;;;0.73;0.60;;;;;;;21.22;28.37;100695.00;4543631;28;21067;-57
2023/03/29 01:08:52;;;;;;;0.63;0.63;;;;;;;21.22;28.34;100700.72;4543136;28;20094;-58
2023/03/29 01:11:14;;;;;;;0.70;0.70;;;;;;;21.23;28.23;100696.66;4541776;28;20033;-58
2023/03/29 01:13:54;;;;;;;0.70;0.70;;;;;;;21.20;28.50;100685.09;4544368;28;20044;-58
2023/03/29 01:16:07;;;;;;;0.70;0.70;;;;;;;21.19;28.24;100683.41;4545000;28;20049;-57
2023/03/29 01:18:21;;;;;;;0.70;0.70;;;;;;;21.22;28.42;100688.41;4545267;28;20036;-58
2023/03/29 01:21:13;;;;;;;0.68;0.68;;;;;;;21.21;28.60;100676.13;4558425;27;20860;-58
2023/03/29 01:24:05;;;;;;;0.70;0.70;;;;;;;21.21;28.36;100679.00;4546840;28;20037;-58
2023/03/29 01:26:35;;;;;;;0.63;0.63;;;;;;;21.20;28.31;100690.84;4562121;27;20044;-58
2023/03/29 01:28:54;;;;;;;0.93;0.70;;;;;;;21.20;28.52;100676.50;4562658;28;20041;-57
2023/03/29 01:31:11;;;;;;;0.60;0.60;;;;;;;21.19;28.16;100680.53;4547441;28;20035;-58
2023/03/29 01:33:36;;;;;;;0.70;0.70;;;;;;;21.17;28.55;100668.63;4546706;28;21318;-58
2023/03/29 01:36:04;;;;;;;0.70;0.70;;;;;;;21.11;28.39;100658.59;4547425;28;20033;-57
2023/03/29 01:38:20;;;;;;;0.60;0.60;;;;;;;21.18;28.54;100671.13;4546164;28;20780;-57
2023/03/29 01:40:32;;;;;;;0.70;0.70;;;;;;;21.17;28.14;100668.63;4546193;28;20033;-60
2023/03/29 01:42:46;;;;;;;0.70;0.70;;;;;;;21.19;28.39;100667.03;4544936;28;20149;-58
2023/03/29 01:45:09;;;;;;;0.70;0.70;;;;;;;21.18;28.29;100667.41;4562715;28;20083;-57
2023/03/29 01:47:35;;;;;;;0.70;0.70;;;;;;;21.18;28.50;100658.78;4561352;27;21044;-57
2023/03/29 01:49:57;;;;;;;0.60;0.60;;;;;;;21.14;28.56;100652.94;4545824;28;20614;-57
2023/03/29 01:52:24;;;;;;;0.60;0.60;;;;;;;21.17;28.60;100657.94;4544839;28;21676;-58
2023/03/29 01:54:43;;;;;;;0.70;0.60;;;;;;;21.17;28.52;100640.72;4561512;28;20051;-58
2023/03/29 01:56:55;;;;;;;0.50;0.50;;;;;;;21.14;28.55;100637.75;4561792;27;20646;-58
2023/03/29 01:59:11;;;;;;;0.63;0.60;;;;;;;21.16;28.67;100639.06;4562675;28;20086;-57
2023/03/29 02:01:28;;;;;;;0.70;0.70;;;;;;;21.14;28.46;100638.59;4547418;28;20025;-58
2023/03/29 02:03:43;;;;;;;0.50;0.50;;;;;;;21.08;28.46;100614.25;4560599;28;20036;-57
2023/03/29 02:05:57;;;;;;;0.82;0.60;;;;;;;21.15;28.30;100631.69;4562071;28;20036;-57
2023/03/29 02:08:14;;;;;;;0.65;0.65;;;;;;;21.14;28.29;100626.28;4544882;28;20025;-57
2023/03/29 02:10:26;;;;;;;0.55;0.55;;;;;;;21.11;28.56;100607.78;4545313;28;20144;-57
2023/03/29 02:12:37;;;;;;;0.60;0.60;;;;;;;21.10;28.18;100611.00;4546109;28;20041;-58
2023/03/29 02:14:48;;;;;;;0.50;0.50;;;;;;;21.12;28.39;100603.69;4560883;28;20028;-58
2023/03/29 02:17:34;;;;;;;0.70;0.70;;;;;;;21.13;28.68;100602.50;4561691;28;20044;-58
2023/03/29 02:19:49;;;;;;;0.60;0.60;;;;;;;21.09;28.43;100604.44;4553667;28;20036;-57
2023/03/29 02:22:11;;;;;;;0.60;0.60;;;;;;;21.07;28.52;100594.53;4553002;28;20846;-57
2023/03/29 02:24:27;;;;;;;0.40;0.40;;;;;;;21.09;28.31;100584.34;4545173;28;20028;-57
2023/03/29 02:26:38;;;;;;;0.60;0.55;;;;;;;21.12;28.42;100589.34;4544143;28;20041;-57
2023/03/29 02:28:50;;;;;;;0.50;0.50;;;;;;;21.10;28.69;100585.19;4561812;27;20033;-56
2023/03/29 02:31:07;;;;;;;0.85;0.50;;;;;;;21.10;28.51;100583.16;4544381;28;20037;-57
2023/03/29 02:33:26;;;;;;;0.68;0.60;;;;;;;21.11;28.71;100586.84;4542967;28;20040;-59
2023/03/29 02:35:47;;;;;;;0.40;0.40;;;;;;;21.06;28.35;100575.66;4544909;28;20029;-57
2023/03/29 02:38:00;;;;;;;0.55;0.50;;;;;;;21.10;28.58;100579.44;4561689;28;20051;-56
2023/03/29 02:40:13;;;;;;;0.50;0.50;;;;;;;21.09;28.43;100581.47;4546352;28;20041;-57
2023/03/29 02:42:25;;;;;;;0.90;0.60;;;;;;;21.10;28.20;100582.31;4544710;28;20028;-57
2023/03/29 02:44:40;;;;;;;0.60;0.60;;;;;;;21.07;28.12;100580.19;4545059;27;20125;-58
2023/03/29 02:46:56;;;;;;;0.70;0.60;;;;;;;21.07;28.21;100583.91;4547270;28;20119;-58
2023/03/29 02:49:07;;;;;;;0.60;0.60;;;;;;;21.08;28.21;100584.72;4552393;28;20044;-57
2023/03/29 02:51:28;;;;;;;0.55;0.55;;;;;;;21.06;27.99;100567.06;4562072;27;20029;-57
2023/03/29 02:53:43;;;;;;;0.68;0.57;;;;;;;21.08;27.85;100579.81;4548801;28;20032;-58
2023/03/29 02:55:54;;;;;;;0.68;0.68;;;;;;;21.07;28.20;100572.41;4541799;28;20056;-57
2023/03/29 02:58:07;;;;;;;0.60;0.60;;;;;;;21.07;28.04;100575.28;4545398;28;20131;-57
2023/03/29 03:00:18;;;;;;;0.50;0.50;;;;;;;21.05;27.79;100568.25;4553499;28;20119;-58
2023/03/29 03:02:29;;;;;;;0.50;0.50;;;;;;;21.05;28.19;100576.84;4544144;28;20810;-58
2023/03/29 03:04:40;;;;;;;0.60;0.60;;;;;;;21.05;28.19;100571.09;4562061;28;20120;-58
2023/03/29 03:06:50;;;;;;;0.50;0.50;;;;;;;21.03;27.90;100565.75;4562244;28;20047;-58
2023/03/29 03:09:03;;;;;;;0.98;0.68;;;;;;;21.03;28.21;100547.69;4554307;28;20044;-57
2023/03/29 03:11:15;;;;;;;0.73;0.60;;;;;;;21.00;28.31;100543.53;4543946;28;20143;-56
2023/03/29 03:13:26;;;;;;;0.60;0.60;;;;;;;21.03;28.46;100541.94;4551486;28;20036;-57
2023/03/29 03:15:37;;;;;;;0.50;0.50;;;;;;;21.04;28.39;100546.50;4547124;28;20037;-58
2023/03/29 03:17:48;;;;;;;0.50;0.50;;;;;;;21.04;28.41;100537.88;4545780;28;20894;-58
2023/03/29 03:19:59;;;;;;;0.50;0.50;;;;;;;21.04;28.15;100540.75;4543749;28;20046;-57
2023/03/29 03:22:11;;;;;;;0.40;0.40;;;;;;;20.97;28.00;100527.06;4561550;28;20691;-57
2023/03/29 03:24:22;;;;;;;0.65;0.65;;;;;;;21.00;28.20;100532.06;4561048;28;20283;-57
2023/03/29 03:26:34;;;;;;;0.60;0.60;;;;;;;21.02;28.30;100535.41;4545438;28;20838;-57
2023/03/29 03:28:45;;;;;;;0.55;0.55;;;;;;;21.00;28.19;100534.94;4562296;27;20184;-58
2023/03/29 03:31:14;;;;;;;0.60;0.60;;;;;;;20.99;28.32;100530.41;4543628;28;20584;-58
2023/03/29 03:33:47;;;;;;;0.60;0.60;;;;;;;20.99;28.55;100523.81;4544065;28;20121;-57
2023/03/29 03:36:33;;;;;;;0.60;0.60;;;;;;;20.99;28.80;100524.66;4545493;28;20051;-58
2023/03/29 03:38:45;;;;;;;0.60;0.60;;;;;;;20.98;28.09;100522.97;4543877;28;20110;-57
2023/03/29 03:40:56;;;;;;;0.80;0.60;;;;;;;20.97;28.37;100509.84;4553262;28;20603;-57
2023/03/29 03:43:07;;;;;;;0.68;0.60;;;;;;;20.94;28.35;100516.31;4559162;27;20037;-56
2023/03/29 03:45:18;;;;;;;1.02;0.70;;;;;;;20.98;28.29;100517.25;4543089;28;20059;-58
2023/03/29 03:47:38;;;;;;;0.80;0.70;;;;;;;20.99;28.64;100515.22;4561362;27;20042;-57
2023/03/29 03:50:10;;;;;;;0.82;0.80;;;;;;;20.97;28.40;100509.00;4555839;27;20037;-57
2023/03/29 03:52:22;;;;;;;0.85;0.60;;;;;;;20.95;28.38;100503.59;4553243;28;20155;-57
2023/03/29 03:54:33;;;;;;;0.60;0.60;;;;;;;20.93;28.53;100497.41;4549746;28;20033;-58
2023/03/29 03:57:16;;;;;;;0.73;0.70;;;;;;;20.99;28.21;100503.72;4551900;28;20974;-59
2023/03/29 03:59:32;;;;;;;0.80;0.60;;;;;;;20.96;28.14;100505.31;4552656;28;20025;-58
2023/03/29 04:01:47;;;;;;;0.60;0.60;;;;;;;20.94;27.88;100504.81;4559127;27;20674;-57
2023/03/29 04:04:02;;;;;;;0.50;0.50;;;;;;;20.96;28.03;100496.72;4546460;28;20026;-58
2023/03/29 04:06:13;;;;;;;0.50;0.50;;;;;;;20.94;28.17;100499.09;4561050;27;20048;-58
2023/03/29 04:08:47;;;;;;;0.70;0.70;;;;;;;20.94;28.12;100503.97;4547479;28;20679;-57
2023/03/29 04:11:09;;;;;;;0.75;0.68;;;;;;;20.95;28.13;100506.47;4561618;28;20040;-58
2023/03/29 04:13:22;;;;;;;0.68;0.60;;;;;;;20.94;28.00;100510.56;4560361;27;20134;-58
2023/03/29 04:15:55;;;;;;;0.60;0.60;;;;;;;20.92;28.16;100501.47;4541790;28;20591;-59
2023/03/29 04:18:06;;;;;;;0.70;0.65;;;;;;;20.94;27.60;100510.56;4544979;28;20122;-57
2023/03/29 04:20:23;;;;;;;0.93;0.60;;;;;;;20.93;27.79;100508.88;4559321;28;20032;-58
2023/03/29 04:22:33;;;;;;;0.70;0.70;;;;;;;20.88;27.98;100496.88;4545609;28;20058;-57
2023/03/29 04:24:44;;;;;;;0.40;0.40;;;;;;;20.92;27.71;100507.22;4543301;28;20571;-58
2023/03/29 04:27:14;;;;;;;0.85;0.60;;;;;;;20.93;27.85;100513.81;4546250;28;20033;-58
2023/03/29 04:29:25;;;;;;;0.50;0.50;;;;;;;20.92;27.65;100518.69;4560193;28;20028;-58
2023/03/29 04:31:44;;;;;;;0.93;0.60;;;;;;;20.88;27.50;100508.34;4545060;28;21026;-57
2023/03/29 04:34:14;;;;;;;0.40;0.40;;;;;;;20.87;28.05;100501.75;4541794;28;20047;-57
2023/03/29 04:36:25;;;;;;;0.50;0.50;;;;;;;20.85;27.69;100498.47;4559537;28;20497;-57
2023/03/29 04:38:36;;;;;;;0.50;0.50;;;;;;;20.90;27.89;100492.41;4552307;28;20536;-57
2023/03/29 04:40:48;;;;;;;0.60;0.60;;;;;;;20.90;28.02;100492.41;4550239;28;20036;-57
2023/03/29 04:43:08;;;;;;;0.75;0.50;;;;;;;20.90;27.89;100498.16;4544887;28;20029;-57
2023/03/29 04:45:21;;;;;;;0.60;0.60;;;;;;;20.90;27.67;100509.63;4552115;28;20032;-57
2023/03/29 04:47:49;;;;;;;0.50;0.50;;;;;;;20.88;28.16;100500.56;4538057;28;20534;-57
2023/03/29 04:50:02;;;;;;;0.52;0.50;;;;;;;20.85;27.87;100498.47;4551266;28;20135;-57
2023/03/29 04:52:21;;;;;;;0.75;0.63;;;;;;;20.87;27.95;100489.47;4543001;28;20095;-58
2023/03/29 04:54:32;;;;;;;0.68;0.68;;;;;;;20.85;28.00;100484.13;4560349;27;20074;-57
2023/03/29 04:56:42;;;;;;;0.57;0.52;;;;;;;20.88;28.03;100494.84;4554990;28;20048;-57
2023/03/29 04:59:12;;;;;;;0.50;0.50;;;;;;;20.74;28.17;100460.88;4563099;28;20056;-57
2023/03/29 05:01:23;;;;;;;0.50;0.50;;;;;;;20.87;27.94;100483.75;4562624;28;20037;-56
2023/03/29 05:03:40;;;;;;;;;;;;;;;20.88;28.17;100488.25;4554145;28;20063;-56
2023/03/29 05:06:08;;;;;;;0.80;0.60;;;;;;;20.86;28.26;100491.50;4548273;28;19920;-57
2023/03/29 05:08:20;;;;;;;0.68;0.60;;;;;;;20.83;27.77;100479.94;4560583;28;20083;-58
2023/03/29 05:10:49;;;;;;;0.60;0.55;;;;;;;20.80;27.90;100472.91;4546018;28;20055;-57
2023/03/29 05:13:02;;;;;;;0.52;0.52;;;;;;;20.86;27.91;100479.19;4544182;28;20036;-57
2023/03/29 05:15:13;;;;;;;0.57;0.57;;;;;;;20.85;28.07;100483.28;4560198;27;20040;-57
2023/03/29 05:17:26;;;;;;;0.70;0.60;;;;;;;20.81;27.99;100477.44;4545456;28;20850;-58
2023/03/29 05:19:37;;;;;;;0.75;0.70;;;;;;;20.83;27.99;100477.91;4552299;28;20622;-59
2023/03/29 05:21:51;;;;;;;0.65;0.60;;;;;;;20.81;28.02;100477.44;4545658;28;20028;-57
2023/03/29 05:24:05;;;;;;;0.75;0.75;;;;;;;20.83;27.82;100475.03;4543321;28;20036;-57
2023/03/29 05:26:34;;;;;;;0.60;0.60;;;;;;;20.79;27.97;100471.22;4544117;28;20343;-57
2023/03/29 05:28:44;;;;;;;0.95;0.68;;;;;;;20.77;28.21;100467.94;4543980;28;20485;-57
2023/03/29 05:31:00;;;;;;;0.50;0.50;;;;;;;20.82;28.00;100473.34;4559392;28;20040;-57
2023/03/29 05:33:11;;;;;;;0.60;0.60;;;;;;;20.79;28.22;100471.22;4559346;27;20136;-57
2023/03/29 05:35:24;;;;;;;0.40;0.40;;;;;;;20.76;28.33;100471.97;4560598;27;20106;-58
2023/03/29 05:37:35;;;;;;;1.05;0.60;;;;;;;20.78;28.08;100472.44;4542078;28;20115;-57
2023/03/29 05:39:48;;;;;;;0.60;0.60;;;;;;;20.79;28.20;100465.50;4543732;28;20035;-58
2023/03/29 05:41:59;;;;;;;1.23;0.63;;;;;;;20.79;28.06;100465.50;4561233;28;20041;-58
2023/03/29 05:44:25;;;;;;;0.60;0.52;;;;;;;20.79;28.28;100468.34;4545945;28;20056;-58
2023/03/29 05:46:41;;;;;;;0.88;0.57;;;;;;;20.77;28.24;100467.94;4542177;28;20524;-57
2023/03/29 05:48:56;;;;;;;0.60;0.60;;;;;;;20.76;28.72;100469.09;4543046;28;20040;-58
2023/03/29 05:51:18;;;;;;;0.60;0.60;;;;;;;20.79;28.89;100471.22;4551768;28;20317;-58
2023/03/29 05:53:28;;;;;;;0.55;0.55;;;;;;;20.78;28.95;100467.56;4542519;28;20393;-58
2023/03/29 05:55:40;;;;;;;0.57;0.57;;;;;;;20.76;28.98;100469.09;4558182;27;20372;-61
2023/03/29 05:57:51;;;;;;;0.95;0.80;;;;;;;20.76;28.78;100469.09;4559813;28;20098;-59
2023/03/29 06:00:24;;;;;;;0.60;0.60;;;;;;;20.75;28.73;100470.31;4559951;28;20036;-58
2023/03/29 06:02:43;;;;;;;0.50;0.50;;;;;;;20.76;28.55;100477.72;4543476;28;20029;-58
2023/03/29 06:04:54;;;;;;;0.60;0.60;;;;;;;20.71;28.72;100461.63;4549632;28;20492;-57
2023/03/29 06:07:09;;;;;;;1.20;0.70;;;;;;;20.77;28.84;100471.59;4541953;28;20592;-59
2023/03/29 06:09:20;;;;;;;0.65;0.65;;;;;;;20.75;28.62;100470.31;4551516;28;20029;-58
2023/03/29 06:11:39;;;;;;;1.15;0.70;;;;;;;20.77;28.85;100476.53;4550933;28;20477;-59
2023/03/29 06:13:53;;;;;;;0.95;0.82;;;;;;;20.76;28.55;100481.41;4543845;28;20048;-57
2023/03/29 06:16:08;;;;;;;0.98;0.70;;;;;;;20.76;28.92;100481.41;4559845;28;20028;-57
2023/03/29 06:18:19;;;;;;;0.60;0.60;;;;;;;20.73;28.88;100466.97;4559458;27;20653;-57
2023/03/29 06:20:31;;;;;;;0.60;0.60;;;;;;;20.75;28.79;100461.72;4545659;28;20108;-58
2023/03/29 06:22:47;;;;;;;0.73;0.60;;;;;;;20.73;28.70;100458.38;4545372;28;20552;-57
2023/03/29 06:24:57;;;;;;;1.17;0.70;;;;;;;20.72;28.86;100469.00;4561590;28;20156;-57
2023/03/29 06:27:13;;;;;;;1.38;0.70;;;;;;;20.72;28.93;100480.47;4552707;28;20665;-57
2023/03/29 06:29:24;;;;;;;0.60;0.60;;;;;;;20.74;28.88;100465.78;4558945;28;20028;-57
2023/03/29 06:31:35;;;;;;;0.65;0.60;;;;;;;20.74;29.26;100465.78;4560718;28;20071;-56
2023/03/29 06:33:48;;;;;;;0.80;0.70;;;;;;;20.74;29.25;100471.50;4560341;28;20035;-58
2023/03/29 06:36:33;;;;;;;0.60;0.60;;;;;;;20.73;29.41;100470.69;4543569;28;20074;-58
2023/03/29 06:38:44;;;;;;;0.70;0.70;;;;;;;20.74;29.08;100482.97;4560969;27;20063;-62
2023/03/29 06:41:22;;;;;;;0.60;0.60;;;;;;;20.74;29.09;100477.25;4544199;28;20063;-58
2023/03/29 06:43:42;;;;;;;0.75;0.60;;;;;;;20.74;29.37;100488.72;4545525;28;20660;-59
2023/03/29 06:45:58;;;;;;;1.27;0.75;;;;;;;20.75;29.24;100481.78;4559966;28;20041;-57
2023/03/29 06:48:16;;;;;;;0.88;0.60;;;;;;;20.72;29.59;100482.53;4560597;27;20031;-58
2023/03/29 06:50:27;;;;;;;0.65;0.57;;;;;;;20.75;29.84;100487.53;4550418;28;20539;-57
2023/03/29 06:52:46;;;;;;;1.52;0.70;;;;;;;20.69;29.30;100475.50;4551900;28;20135;-57
2023/03/29 06:54:57;;;;;;;0.93;0.88;;;;;;;20.68;29.45;100475.88;4544777;28;20520;-58
2023/03/29 06:57:09;;;;;;;0.93;0.70;;;;;;;20.73;29.44;100481.31;4560881;28;20079;-57
2023/03/29 06:59:19;;;;;;;0.95;0.60;;;;;;;20.73;29.60;100487.06;4559928;27;20689;-58
2023/03/29 07:01:41;;;;;;;0.60;0.60;;;;;;;20.68;29.75;100475.88;4542966;28;20604;-58
2023/03/29 07:04:16;;;;;;;0.80;0.70;;;;;;;20.71;29.94;100486.59;4545278;27;20044;-57
2023/03/29 07:06:47;;;;;;;0.68;0.52;;;;;;;20.71;29.78;100484.56;4540582;28;20045;-58
2023/03/29 07:09:00;;;;;;;0.57;0.57;;;;;;;20.70;30.09;100473.47;4550974;28;20032;-58
2023/03/29 07:11:35;;;;;;;0.60;0.60;;;;;;;20.72;30.40;100474.75;4543867;28;20036;-57
2023/03/29 07:13:59;;;;;;;0.63;0.60;;;;;;;20.73;30.38;100482.16;4559801;28;20059;-58
2023/03/29 07:16:11;;;;;;;0.60;0.60;;;;;;;20.74;30.31;100480.13;4558510;28;20034;-58
2023/03/29 07:18:43;;;;;;;0.70;0.70;;;;;;;20.73;30.68;100475.59;4542803;28;20056;-58
2023/03/29 07:20:57;;;;;;;0.60;0.60;;;;;;;20.71;30.69;100478.00;4559017;27;20543;-58
2023/03/29 07:23:09;;;;;;;0.77;0.70;;;;;;;20.67;30.79;100468.47;4541773;28;20036;-58
2023/03/29 07:25:21;;;;;;;0.70;0.70;;;;;;;20.69;30.73;100468.94;4543573;28;20139;-58
2023/03/29 07:27:32;;;;;;;0.77;0.60;;;;;;;20.72;30.99;100479.66;4560086;28;20081;-58
2023/03/29 07:29:42;;;;;;;0.63;0.63;;;;;;;20.69;30.80;100463.22;4543270;28;20766;-58
2023/03/29 07:31:53;;;;;;;0.70;0.70;;;;;;;20.66;31.09;100470.50;4549806;28;20036;-59
2023/03/29 07:34:23;;;;;;;1.00;0.90;;;;;;;20.70;31.41;100477.19;4545074;28;20155;-57
2023/03/29 07:36:33;;;;;;;1.10;0.80;;;;;;;20.71;31.24;100478.00;4552529;27;20029;-58
2023/03/29 07:38:44;;;;;;;0.60;0.60;;;;;;;20.69;31.38;100481.22;4559107;28;20261;-58
2023/03/29 07:41:04;;;;;;;0.75;0.68;;;;;;;20.71;31.56;100483.72;4541607;28;20076;-58
2023/03/29 07:43:33;;;;;;;0.75;0.68;;;;;;;20.70;31.69;100484.94;4527573;28;20033;-58
2023/03/29 07:45:43;;;;;;;0.70;0.70;;;;;;;20.70;31.78;100480.03;4550849;28;20037;-58
2023/03/29 07:47:57;;;;;;;0.95;0.90;;;;;;;20.70;31.62;100480.03;4534039;28;20032;-58
2023/03/29 07:50:08;;;;;;;0.88;0.60;;;;;;;20.69;31.94;100492.69;4550278;28;20215;-58
2023/03/29 07:52:19;;;;;;;0.73;0.73;;;;;;;20.69;31.90;100486.16;4553512;28;20032;-58
2023/03/29 07:54:31;;;;;;;0.88;0.70;;;;;;;20.69;32.09;100483.28;4549994;28;20037;-58
2023/03/29 07:57:08;;;;;;;0.75;0.70;;;;;;;20.71;32.22;100498.06;4541548;28;20048;-58
2023/03/29 07:59:23;;;;;;;0.60;0.60;;;;;;;20.70;32.05;100493.53;4559619;28;20051;-57
2023/03/29 08:01:46;;;;;;;0.93;0.80;;;;;;;20.69;32.29;100491.88;4558526;28;21218;-57
2023/03/29 08:04:06;;;;;;;0.90;0.60;;;;;;;20.66;32.46;100481.97;4541356;28;20033;-57
2023/03/29 08:06:39;;;;;;;1.27;0.93;;;;;;;20.72;32.71;100496.88;4544394;28;20129;-57
2023/03/29 08:08:51;;;;;;;0.77;0.65;;;;;;;20.58;32.49;100470.72;4555517;28;20047;-57
2023/03/29 08:11:01;;;;;;;0.80;0.80;;;;;;;20.73;32.41;100496.50;4556333;27;20127;-57
2023/03/29 08:13:35;;;;;;;0.85;0.73;;;;;;;20.61;32.61;100481.44;4556993;28;20219;-57
2023/03/29 08:16:04;;;;;;;0.82;0.70;;;;;;;20.73;32.42;100498.53;4537932;28;20083;-56
2023/03/29 08:18:20;;;;;;;1.10;1.00;;;;;;;20.72;32.76;100500.56;4550258;28;20571;-57
2023/03/29 08:20:31;;;;;;;1.20;0.70;;;;;;;20.71;32.68;100501.78;4542454;28;20528;-57
2023/03/29 08:22:47;;;;;;;0.80;0.80;;;;;;;20.74;32.99;100505.94;4555858;28;20083;-57
2023/03/29 08:25:06;;;;;;;0.60;0.60;;;;;;;20.73;32.88;100492.81;4541200;28;20045;-56
2023/03/29 08:27:21;;;;;;;0.85;0.60;;;;;;;20.71;33.07;100490.31;4539910;28;20111;-56
2023/03/29 08:29:32;;;;;;;0.65;0.65;;;;;;;20.72;32.81;100494.81;4540762;28;20021;-57
2023/03/29 08:31:42;;;;;;;0.68;0.60;;;;;;;20.73;33.08;100492.81;4560367;27;20032;-56
2023/03/29 08:33:53;;;;;;;1.50;0.55;;;;;;;20.74;33.10;100495.28;4548048;28;20083;-56
2023/03/29 08:36:23;;;;;;;0.40;0.40;;;;;;;20.73;33.19;100498.53;4561453;27;20059;-55
2023/03/29 08:38:36;;;;;;;0.65;0.63;;;;;;;20.72;32.96;100502.63;4559687;28;20139;-56
2023/03/29 08:40:48;;;;;;;0.80;0.60;;;;;;;20.69;33.53;100480.41;4553291;28;20028;-56
2023/03/29 08:43:17;;;;;;;1.42;1.02;;;;;;;20.75;33.35;100496.13;4560881;28;20383;-56
2023/03/29 08:46:20;;;;;;;1.52;0.80;;;;;;;20.76;33.52;100486.31;4560387;27;20310;-56
2023/03/29 08:49:01;;;;;;;1.08;0.70;;;;;;;20.74;33.66;100482.97;4562842;28;20036;-56
2023/03/29 08:51:24;;;;;;;0.80;0.60;;;;;;;20.75;33.69;100476.06;4546975;28;20985;-56
2023/03/29 08:53:42;;;;;;;0.63;0.57;;;;;;;20.76;33.64;100475.69;4545370;28;20029;-57
2023/03/29 08:56:03;;;;;;;1.05;0.70;;;;;;;20.72;33.54;100473.94;4544712;28;20919;-56
2023/03/29 08:58:48;;;;;;;0.70;0.70;;;;;;;20.77;33.89;100479.41;4548334;28;20049;-56
2023/03/29 09:01:00;;;;;;;1.00;0.70;;;;;;;20.76;33.50;100475.69;4543088;28;20099;-56
2023/03/29 09:03:25;;;;;;;0.52;0.52;;;;;;;20.76;33.69;100474.84;4542349;28;20036;-56
2023/03/29 09:05:47;;;;;;;1.20;0.85;;;;;;;20.78;33.54;100478.19;4558999;27;20692;-57
2023/03/29 09:08:12;;;;;;;0.80;0.77;;;;;;;20.76;33.80;100475.69;4544683;27;20700;-56
2023/03/29 09:10:33;;;;;;;0.60;0.60;;;;;;;20.76;33.63;100492.06;4561089;27;20822;-56
2023/03/29 09:13:01;;;;;;;0.82;0.60;;;;;;;20.78;33.41;100492.53;4562239;27;20089;-56
2023/03/29 09:15:26;;;;;;;1.08;0.85;;;;;;;20.78;33.47;100489.66;4560146;27;20063;-56
2023/03/29 09:17:46;;;;;;;0.80;0.70;;;;;;;20.79;33.40;100483.53;4543044;28;20033;-56
2023/03/29 09:20:29;;;;;;;0.73;0.70;;;;;;;20.79;33.57;100486.41;4543809;28;20107;-56
2023/03/29 09:22:52;;;;;;;0.70;0.70;;;;;;;20.77;33.70;100476.53;4558974;28;20063;-56
2023/03/29 09:25:22;;;;;;;1.20;0.80;;;;;;;20.78;33.40;100483.91;4558464;27;20126;-56
2023/03/29 09:27:46;;;;;;;1.23;0.80;;;;;;;20.78;33.75;100490.50;4560165;27;20114;-56
2023/03/29 09:30:15;;;;;;;0.65;0.65;;;;;;;20.76;33.91;100480.56;4542981;28;20036;-55
2023/03/29 09:33:15;;;;;;;0.73;0.73;;;;;;;20.78;33.95;100483.91;4561026;28;20040;-56
2023/03/29 09:36:12;;;;;;;0.80;0.70;;;;;;;20.79;33.92;100482.69;4545254;28;20631;-56
2023/03/29 09:38:23;;;;;;;0.88;0.60;;;;;;;20.75;33.65;100474.03;4560421;28;20044;-56
2023/03/29 09:40:45;;;;;;;1.00;0.80;;;;;;;20.75;34.01;100478.94;4559610;27;20041;-56
2023/03/29 09:43:03;;;;;;;1.35;0.80;;;;;;;20.76;33.68;100469.09;4559389;27;20283;-56
2023/03/29 09:45:14;;;;;;;0.80;0.75;;;;;;;20.75;33.89;100482.63;4559687;27;20037;-56
2023/03/29 09:47:49;;;;;;;1.05;0.80;;;;;;;20.77;34.03;100485.13;4544684;28;20036;-56
2023/03/29 09:50:05;;;;;;;0.90;0.70;;;;;;;20.76;33.80;100471.97;4560963;28;20036;-59
2023/03/29 09:52:18;;;;;;;1.17;0.90;;;;;;;20.75;34.16;100468.28;4547743;28;20123;-58
2023/03/29 09:54:40;;;;;;;0.85;0.70;;;;;;;20.70;33.95;100459.13;4554989;27;20067;-57
2023/03/29 09:57:14;;;;;;;1.00;0.80;;;;;;;20.77;34.51;100465.88;4544553;27;20587;-57
2023/03/29 09:59:24;;;;;;;1.13;1.02;;;;;;;20.75;34.36;100467.47;4545587;28;20041;-56
2023/03/29 10:01:37;;;;;;;1.20;1.00;;;;;;;20.74;34.90;100457.16;4552015;28;20028;-56
2023/03/29 10:03:52;;;;;;;1.48;0.80;;;;;;;20.75;34.85;100464.59;4561227;27;20048;-56
2023/03/29 10:06:06;;;;;;;1.50;0.80;;;;;;;20.77;34.93;100462.19;4560906;27;20028;-57
2023/03/29 10:08:22;;;;;;;1.00;0.90;;;;;;;20.79;35.11;100452.00;4543400;28;20592;-56
2023/03/29 10:10:35;;;;;;;0.80;0.80;;;;;;;20.74;35.39;100452.28;4560761;27;20783;-57
2023/03/29 10:12:49;;;;;;;1.17;0.70;;;;;;;20.67;35.27;100445.53;4561029;28;20064;-57
2023/03/29 10:15:00;;;;;;;0.80;0.70;;;;;;;20.75;34.94;100456.81;4545574;28;20040;-58
2023/03/29 10:17:18;;;;;;;0.77;0.77;;;;;;;20.78;34.85;100449.50;4544540;28;20052;-57
2023/03/29 10:19:34;;;;;;;1.17;0.80;;;;;;;20.75;34.90;100462.56;4545265;28;20029;-56
2023/03/29 10:21:51;;;;;;;1.20;0.82;;;;;;;20.77;34.84;100463.00;4543062;28;20127;-56
2023/03/29 10:24:02;;;;;;;1.00;0.90;;;;;;;20.74;34.52;100452.28;4543647;28;21080;-56
2023/03/29 10:26:27;;;;;;;0.88;0.88;;;;;;;20.73;34.64;100453.50;4545141;28;20047;-58
2023/03/29 10:28:37;;;;;;;1.15;1.05;;;;;;;20.69;34.55;100448.88;4553069;28;20101;-57
2023/03/29 10:30:54;;;;;;;1.00;0.90;;;;;;;20.76;34.76;100452.75;4545842;28;20101;-58
2023/03/29 10:33:14;;;;;;;1.92;1.20;;;;;;;20.76;34.75;100458.47;4544544;28;20101;-57
2023/03/29 10:35:39;;;;;;;1.58;1.08;;;;;;;20.78;34.38;100449.50;4545468;28;20037;-61
2023/03/29 10:37:52;;;;;;;1.00;0.90;;;;;;;20.78;34.83;100464.69;4545226;28;20041;-55
2023/03/29 10:40:03;;;;;;;1.02;0.80;;;;;;;20.77;35.09;100457.25;4545004;28;20079;-58
2023/03/29 10:42:17;;;;;;;1.02;0.90;;;;;;;20.80;35.12;100449.97;4547014;28;20029;-56